sensor_id;sensor_type;location;lat;lon;timestamp;temperature;humidity
67759;SHT31;54562;47.620;18.786;2023-02-15T00:01:57;0.55;79.00
67759;SHT31;54562;47.620;18.786;2023-02-15T00:05:04;0.53;78.71
67759;SHT31;54562;47.620;18.786;2023-02-15T00:08:11;0.49;78.78
67759;SHT31;54562;47.620;18.786;2023-02-15T00:11:22;0.44;78.71
67759;SHT31;54562;47.620;18.786;2023-02-15T00:14:42;0.41;78.84
67759;SHT31;54562;47.620;18.786;2023-02-15T00:17:49;0.39;78.73
67759;SHT31;54562;47.620;18.786;2023-02-15T00:20:55;0.33;78.60
67759;SHT31;54562;47.620;18.786;2023-02-15T00:24:03;0.30;78.57
67759;SHT31;54562;47.620;18.786;2023-02-15T00:27:12;0.29;78.91
67759;SHT31;54562;47.620;18.786;2023-02-15T00:30:19;0.31;79.43
67759;SHT31;54562;47.620;18.786;2023-02-15T00:33:29;0.32;79.13
67759;SHT31;54562;47.620;18.786;2023-02-15T00:36:36;0.31;79.22
67759;SHT31;54562;47.620;18.786;2023-02-15T00:39:45;0.32;79.37
67759;SHT31;54562;47.620;18.786;2023-02-15T00:42:52;0.34;79.50
67759;SHT31;54562;47.620;18.786;2023-02-15T00:45:59;0.36;79.57
67759;SHT31;54562;47.620;18.786;2023-02-15T00:49:07;0.39;79.58
67759;SHT31;54562;47.620;18.786;2023-02-15T00:52:14;0.43;79.90
67759;SHT31;54562;47.620;18.786;2023-02-15T00:55:20;0.46;79.87
67759;SHT31;54562;47.620;18.786;2023-02-15T00:58:27;0.47;79.65
67759;SHT31;54562;47.620;18.786;2023-02-15T01:01:34;0.48;79.52
67759;SHT31;54562;47.620;18.786;2023-02-15T01:04:41;0.45;79.26
67759;SHT31;54562;47.620;18.786;2023-02-15T01:07:48;0.41;79.18
67759;SHT31;54562;47.620;18.786;2023-02-15T01:10:56;0.39;79.34
67759;SHT31;54562;47.620;18.786;2023-02-15T01:14:07;0.36;79.40
67759;SHT31;54562;47.620;18.786;2023-02-15T01:17:14;0.37;79.39
67759;SHT31;54562;47.620;18.786;2023-02-15T01:20:21;0.30;78.97
67759;SHT31;54562;47.620;18.786;2023-02-15T01:23:28;0.23;78.91
67759;SHT31;54562;47.620;18.786;2023-02-15T01:26:38;0.20;78.96
67759;SHT31;54562;47.620;18.786;2023-02-15T01:29:44;0.19;79.12
67759;SHT31;54562;47.620;18.786;2023-02-15T01:32:52;0.18;79.32
67759;SHT31;54562;47.620;18.786;2023-02-15T01:35:58;0.20;79.48
67759;SHT31;54562;47.620;18.786;2023-02-15T01:39:05;0.22;79.53
67759;SHT31;54562;47.620;18.786;2023-02-15T01:42:13;0.22;79.70
67759;SHT31;54562;47.620;18.786;2023-02-15T01:45:25;0.24;79.77
67759;SHT31;54562;47.620;18.786;2023-02-15T01:48:33;0.23;79.80
67759;SHT31;54562;47.620;18.786;2023-02-15T01:51:43;0.25;79.79
67759;SHT31;54562;47.620;18.786;2023-02-15T01:54:51;0.26;79.83
67759;SHT31;54562;47.620;18.786;2023-02-15T01:57:58;0.24;79.53
67759;SHT31;54562;47.620;18.786;2023-02-15T02:01:05;0.20;79.51
67759;SHT31;54562;47.620;18.786;2023-02-15T02:04:15;0.18;79.62
67759;SHT31;54562;47.620;18.786;2023-02-15T02:07:28;0.18;79.82
67759;SHT31;54562;47.620;18.786;2023-02-15T02:10:37;0.15;79.74
67759;SHT31;54562;47.620;18.786;2023-02-15T02:13:43;0.13;79.68
67759;SHT31;54562;47.620;18.786;2023-02-15T02:16:52;0.11;79.73
67759;SHT31;54562;47.620;18.786;2023-02-15T02:20:15;0.10;79.81
67759;SHT31;54562;47.620;18.786;2023-02-15T02:23:32;0.10;79.81
67759;SHT31;54562;47.620;18.786;2023-02-15T02:27:06;0.09;79.92
67759;SHT31;54562;47.620;18.786;2023-02-15T02:34:09;0.06;79.91
67759;SHT31;54562;47.620;18.786;2023-02-15T02:37:22;0.05;79.91
67759;SHT31;54562;47.620;18.786;2023-02-15T02:40:38;0.05;79.89
67759;SHT31;54562;47.620;18.786;2023-02-15T02:43:54;0.04;79.82
67759;SHT31;54562;47.620;18.786;2023-02-15T02:47:08;0.04;79.89
67759;SHT31;54562;47.620;18.786;2023-02-15T02:50:21;0.01;79.83
67759;SHT31;54562;47.620;18.786;2023-02-15T02:53:30;-0.00;79.93
67759;SHT31;54562;47.620;18.786;2023-02-15T02:56:38;-0.01;79.90
67759;SHT31;54562;47.620;18.786;2023-02-15T02:59:47;-0.03;79.78
67759;SHT31;54562;47.620;18.786;2023-02-15T03:02:58;-0.06;79.75
67759;SHT31;54562;47.620;18.786;2023-02-15T03:06:10;-0.06;79.83
67759;SHT31;54562;47.620;18.786;2023-02-15T03:09:23;-0.07;80.02
67759;SHT31;54562;47.620;18.786;2023-02-15T03:12:38;-0.08;80.16
67759;SHT31;54562;47.620;18.786;2023-02-15T03:15:45;-0.10;79.93
67759;SHT31;54562;47.620;18.786;2023-02-15T03:19:21;-0.16;79.56
67759;SHT31;54562;47.620;18.786;2023-02-15T03:22:33;-0.21;79.51
67759;SHT31;54562;47.620;18.786;2023-02-15T03:25:42;-0.26;79.51
67759;SHT31;54562;47.620;18.786;2023-02-15T03:28:50;-0.31;79.65
67759;SHT31;54562;47.620;18.786;2023-02-15T03:31:58;-0.32;79.93
67759;SHT31;54562;47.620;18.786;2023-02-15T03:35:08;-0.32;80.17
67759;SHT31;54562;47.620;18.786;2023-02-15T03:38:17;-0.33;80.05
67759;SHT31;54562;47.620;18.786;2023-02-15T03:41:31;-0.34;80.21
67759;SHT31;54562;47.620;18.786;2023-02-15T03:44:45;-0.32;80.24
67759;SHT31;54562;47.620;18.786;2023-02-15T03:47:59;-0.37;79.65
67759;SHT31;54562;47.620;18.786;2023-02-15T03:51:08;-0.42;79.48
67759;SHT31;54562;47.620;18.786;2023-02-15T03:54:36;-0.43;79.86
67759;SHT31;54562;47.620;18.786;2023-02-15T03:57:47;-0.42;80.07
67759;SHT31;54562;47.620;18.786;2023-02-15T04:01:13;-0.42;80.07
67759;SHT31;54562;47.620;18.786;2023-02-15T04:04:45;-0.50;79.37
67759;SHT31;54562;47.620;18.786;2023-02-15T04:07:51;-0.57;79.17
67759;SHT31;54562;47.620;18.786;2023-02-15T04:10:58;-0.65;79.03
67759;SHT31;54562;47.620;18.786;2023-02-15T04:14:04;-0.68;79.32
67759;SHT31;54562;47.620;18.786;2023-02-15T04:17:24;-0.71;79.60
67759;SHT31;54562;47.620;18.786;2023-02-15T04:20:34;-0.75;79.55
67759;SHT31;54562;47.620;18.786;2023-02-15T04:23:58;-0.81;79.50
67759;SHT31;54562;47.620;18.786;2023-02-15T04:27:22;-0.84;79.81
67759;SHT31;54562;47.620;18.786;2023-02-15T04:30:28;-0.83;80.16
67759;SHT31;54562;47.620;18.786;2023-02-15T04:33:35;-0.82;80.31
67759;SHT31;54562;47.620;18.786;2023-02-15T04:36:41;-0.82;80.28
67759;SHT31;54562;47.620;18.786;2023-02-15T04:39:47;-0.81;80.35
67759;SHT31;54562;47.620;18.786;2023-02-15T04:42:54;-0.80;80.69
67759;SHT31;54562;47.620;18.786;2023-02-15T04:46:00;-0.76;80.94
67759;SHT31;54562;47.620;18.786;2023-02-15T04:49:07;-0.74;80.87
67759;SHT31;54562;47.620;18.786;2023-02-15T04:52:14;-0.75;80.80
67759;SHT31;54562;47.620;18.786;2023-02-15T04:55:21;-0.76;80.54
67759;SHT31;54562;47.620;18.786;2023-02-15T04:58:27;-0.77;80.63
67759;SHT31;54562;47.620;18.786;2023-02-15T05:01:35;-0.80;80.62
67759;SHT31;54562;47.620;18.786;2023-02-15T05:04:42;-0.83;80.50
67759;SHT31;54562;47.620;18.786;2023-02-15T05:07:49;-0.87;80.32
67759;SHT31;54562;47.620;18.786;2023-02-15T05:10:55;-0.90;80.26
67759;SHT31;54562;47.620;18.786;2023-02-15T05:14:01;-0.92;80.35
67759;SHT31;54562;47.620;18.786;2023-02-15T05:17:08;-0.94;80.35
67759;SHT31;54562;47.620;18.786;2023-02-15T05:20:15;-0.97;80.04
67759;SHT31;54562;47.620;18.786;2023-02-15T05:23:22;-1.03;79.99
67759;SHT31;54562;47.620;18.786;2023-02-15T05:26:29;-1.07;80.19
67759;SHT31;54562;47.620;18.786;2023-02-15T05:29:54;-1.04;81.18
67759;SHT31;54562;47.620;18.786;2023-02-15T05:33:00;-1.01;81.71
67759;SHT31;54562;47.620;18.786;2023-02-15T05:36:07;-0.94;82.17
67759;SHT31;54562;47.620;18.786;2023-02-15T05:39:14;-0.87;82.56
67759;SHT31;54562;47.620;18.786;2023-02-15T05:42:20;-0.79;82.77
67759;SHT31;54562;47.620;18.786;2023-02-15T05:45:27;-0.76;82.69
67759;SHT31;54562;47.620;18.786;2023-02-15T05:48:34;-0.75;82.50
67759;SHT31;54562;47.620;18.786;2023-02-15T05:51:41;-0.73;82.50
67759;SHT31;54562;47.620;18.786;2023-02-15T05:54:49;-0.69;82.63
67759;SHT31;54562;47.620;18.786;2023-02-15T05:57:55;-0.65;82.71
67759;SHT31;54562;47.620;18.786;2023-02-15T06:04:52;-0.59;82.81
67759;SHT31;54562;47.620;18.786;2023-02-15T06:07:59;-0.56;82.88
67759;SHT31;54562;47.620;18.786;2023-02-15T06:11:07;-0.52;82.90
67759;SHT31;54562;47.620;18.786;2023-02-15T06:14:14;-0.49;82.97
67759;SHT31;54562;47.620;18.786;2023-02-15T06:17:20;-0.44;83.10
67759;SHT31;54562;47.620;18.786;2023-02-15T06:20:27;-0.37;83.12
67759;SHT31;54562;47.620;18.786;2023-02-15T06:23:33;-0.29;83.21
67759;SHT31;54562;47.620;18.786;2023-02-15T06:26:39;-0.19;83.32
67759;SHT31;54562;47.620;18.786;2023-02-15T06:29:46;-0.07;83.55
67759;SHT31;54562;47.620;18.786;2023-02-15T06:32:53;0.04;83.32
67759;SHT31;54562;47.620;18.786;2023-02-15T06:35:59;0.04;81.91
67759;SHT31;54562;47.620;18.786;2023-02-15T06:39:07;0.04;81.67
67759;SHT31;54562;47.620;18.786;2023-02-15T06:42:13;0.12;82.09
67759;SHT31;54562;47.620;18.786;2023-02-15T06:45:21;0.26;82.63
67759;SHT31;54562;47.620;18.786;2023-02-15T06:48:27;0.37;82.23
67759;SHT31;54562;47.620;18.786;2023-02-15T06:51:33;0.45;81.82
67759;SHT31;54562;47.620;18.786;2023-02-15T06:54:40;0.56;81.97
67759;SHT31;54562;47.620;18.786;2023-02-15T06:57:48;0.68;81.87
67759;SHT31;54562;47.620;18.786;2023-02-15T07:00:54;0.83;82.01
67759;SHT31;54562;47.620;18.786;2023-02-15T07:04:01;0.95;81.68
67759;SHT31;54562;47.620;18.786;2023-02-15T07:07:09;1.05;81.37
67759;SHT31;54562;47.620;18.786;2023-02-15T07:10:16;1.18;81.68
67759;SHT31;54562;47.620;18.786;2023-02-15T07:13:24;1.33;82.01
67759;SHT31;54562;47.620;18.786;2023-02-15T07:16:30;1.44;81.62
67759;SHT31;54562;47.620;18.786;2023-02-15T07:19:37;1.52;81.33
67759;SHT31;54562;47.620;18.786;2023-02-15T07:22:43;1.62;81.56
67759;SHT31;54562;47.620;18.786;2023-02-15T07:25:50;1.74;81.85
67759;SHT31;54562;47.620;18.786;2023-02-15T07:29:03;1.90;82.11
67759;SHT31;54562;47.620;18.786;2023-02-15T07:32:10;2.04;81.87
67759;SHT31;54562;47.620;18.786;2023-02-15T07:35:17;2.15;81.59
67759;SHT31;54562;47.620;18.786;2023-02-15T07:38:23;2.25;81.23
67759;SHT31;54562;47.620;18.786;2023-02-15T07:41:31;2.37;81.20
67759;SHT31;54562;47.620;18.786;2023-02-15T07:44:38;2.47;80.99
67759;SHT31;54562;47.620;18.786;2023-02-15T07:47:44;2.60;81.21
67759;SHT31;54562;47.620;18.786;2023-02-15T07:50:51;2.75;81.32
67759;SHT31;54562;47.620;18.786;2023-02-15T07:53:58;2.85;80.94
67759;SHT31;54562;47.620;18.786;2023-02-15T07:57:04;2.94;80.82
67759;SHT31;54562;47.620;18.786;2023-02-15T08:00:13;3.02;80.63
67759;SHT31;54562;47.620;18.786;2023-02-15T08:03:21;3.09;80.43
67759;SHT31;54562;47.620;18.786;2023-02-15T08:06:30;3.11;80.25
67759;SHT31;54562;47.620;18.786;2023-02-15T08:09:38;3.13;80.16
67759;SHT31;54562;47.620;18.786;2023-02-15T08:12:45;3.16;80.07
67759;SHT31;54562;47.620;18.786;2023-02-15T08:15:51;3.25;80.30
67759;SHT31;54562;47.620;18.786;2023-02-15T08:18:58;3.37;80.47
67759;SHT31;54562;47.620;18.786;2023-02-15T08:22:07;3.52;80.65
67759;SHT31;54562;47.620;18.786;2023-02-15T08:25:16;3.65;80.38
67759;SHT31;54562;47.620;18.786;2023-02-15T08:28:23;3.79;80.12
67759;SHT31;54562;47.620;18.786;2023-02-15T08:31:31;3.93;80.15
67759;SHT31;54562;47.620;18.786;2023-02-15T08:34:39;4.10;80.12
67759;SHT31;54562;47.620;18.786;2023-02-15T08:37:46;4.28;79.60
67759;SHT31;54562;47.620;18.786;2023-02-15T08:40:53;4.45;79.24
67759;SHT31;54562;47.620;18.786;2023-02-15T08:44:00;4.59;78.96
67759;SHT31;54562;47.620;18.786;2023-02-15T08:47:08;4.74;78.71
67759;SHT31;54562;47.620;18.786;2023-02-15T08:50:15;4.88;78.32
67759;SHT31;54562;47.620;18.786;2023-02-15T08:53:21;5.01;77.85
67759;SHT31;54562;47.620;18.786;2023-02-15T08:56:28;5.13;77.46
67759;SHT31;54562;47.620;18.786;2023-02-15T08:59:38;5.22;77.08
67759;SHT31;54562;47.620;18.786;2023-02-15T09:02:45;5.34;76.67
67759;SHT31;54562;47.620;18.786;2023-02-15T09:05:53;5.44;76.30
67759;SHT31;54562;47.620;18.786;2023-02-15T09:09:03;5.56;76.23
67759;SHT31;54562;47.620;18.786;2023-02-15T09:12:10;5.68;75.84
67759;SHT31;54562;47.620;18.786;2023-02-15T09:15:17;5.80;75.57
67759;SHT31;54562;47.620;18.786;2023-02-15T09:18:23;5.94;75.39
67759;SHT31;54562;47.620;18.786;2023-02-15T09:21:30;6.05;75.02
67759;SHT31;54562;47.620;18.786;2023-02-15T09:24:37;6.15;74.78
67759;SHT31;54562;47.620;18.786;2023-02-15T09:27:44;6.28;74.64
67759;SHT31;54562;47.620;18.786;2023-02-15T09:30:51;6.42;74.32
67759;SHT31;54562;47.620;18.786;2023-02-15T09:33:59;6.54;74.13
67759;SHT31;54562;47.620;18.786;2023-02-15T09:37:07;6.66;73.82
67759;SHT31;54562;47.620;18.786;2023-02-15T09:40:14;6.78;73.43
67759;SHT31;54562;47.620;18.786;2023-02-15T09:43:26;6.86;73.05
67759;SHT31;54562;47.620;18.786;2023-02-15T09:46:42;6.95;73.03
67759;SHT31;54562;47.620;18.786;2023-02-15T09:50:03;7.08;72.43
67759;SHT31;54562;47.620;18.786;2023-02-15T09:53:22;7.18;72.40
67759;SHT31;54562;47.620;18.786;2023-02-15T09:56:42;7.22;71.96
67759;SHT31;54562;47.620;18.786;2023-02-15T09:59:55;7.31;72.03
67759;SHT31;54562;47.620;18.786;2023-02-15T10:03:13;7.46;71.93
67759;SHT31;54562;47.620;18.786;2023-02-15T10:06:34;7.53;71.44
67759;SHT31;54562;47.620;18.786;2023-02-15T10:09:50;7.61;71.28
67759;SHT31;54562;47.620;18.786;2023-02-15T10:13:11;7.70;71.06
67759;SHT31;54562;47.620;18.786;2023-02-15T10:16:26;7.74;70.57
67759;SHT31;54562;47.620;18.786;2023-02-15T10:19:45;7.80;70.49
67759;SHT31;54562;47.620;18.786;2023-02-15T10:23:07;7.91;70.11
67759;SHT31;54562;47.620;18.786;2023-02-15T10:26:27;8.05;70.00
67759;SHT31;54562;47.620;18.786;2023-02-15T10:29:54;8.22;69.67
67759;SHT31;54562;47.620;18.786;2023-02-15T10:33:10;8.35;69.39
67759;SHT31;54562;47.620;18.786;2023-02-15T10:36:27;8.47;68.95
67759;SHT31;54562;47.620;18.786;2023-02-15T10:39:48;8.60;68.83
67759;SHT31;54562;47.620;18.786;2023-02-15T10:43:11;8.76;68.28
67759;SHT31;54562;47.620;18.786;2023-02-15T10:46:30;8.80;68.16
67759;SHT31;54562;47.620;18.786;2023-02-15T10:50:02;8.92;67.78
67759;SHT31;54562;47.620;18.786;2023-02-15T10:56:50;9.21;66.63
67759;SHT31;54562;47.620;18.786;2023-02-15T11:00:09;9.33;66.07
67759;SHT31;54562;47.620;18.786;2023-02-15T11:03:25;9.46;65.99
67759;SHT31;54562;47.620;18.786;2023-02-15T11:06:52;9.64;66.03
67759;SHT31;54562;47.620;18.786;2023-02-15T11:10:06;9.77;65.17
67759;SHT31;54562;47.620;18.786;2023-02-15T11:13:27;9.89;64.74
67759;SHT31;54562;47.620;18.786;2023-02-15T11:16:37;9.88;64.28
67759;SHT31;54562;47.620;18.786;2023-02-15T11:19:50;9.93;64.28
67759;SHT31;54562;47.620;18.786;2023-02-15T11:23:12;10.02;63.73
67759;SHT31;54562;47.620;18.786;2023-02-15T11:26:24;10.13;63.97
67759;SHT31;54562;47.620;18.786;2023-02-15T11:29:36;10.22;63.50
67759;SHT31;54562;47.620;18.786;2023-02-15T11:32:47;10.32;62.85
67759;SHT31;54562;47.620;18.786;2023-02-15T11:35:58;10.44;62.98
67759;SHT31;54562;47.620;18.786;2023-02-15T11:39:10;10.51;62.72
67759;SHT31;54562;47.620;18.786;2023-02-15T11:42:20;10.59;62.68
67759;SHT31;54562;47.620;18.786;2023-02-15T11:45:28;10.63;62.17
67759;SHT31;54562;47.620;18.786;2023-02-15T11:48:37;10.61;61.97
67759;SHT31;54562;47.620;18.786;2023-02-15T11:51:44;10.65;61.62
67759;SHT31;54562;47.620;18.786;2023-02-15T11:54:51;10.71;61.54
67759;SHT31;54562;47.620;18.786;2023-02-15T11:57:59;10.75;61.33
67759;SHT31;54562;47.620;18.786;2023-02-15T12:01:11;10.80;61.27
67759;SHT31;54562;47.620;18.786;2023-02-15T12:04:22;10.88;60.96
67759;SHT31;54562;47.620;18.786;2023-02-15T12:07:33;10.81;60.84
67759;SHT31;54562;47.620;18.786;2023-02-15T12:10:51;10.88;60.99
67759;SHT31;54562;47.620;18.786;2023-02-15T12:14:03;10.91;60.72
67759;SHT31;54562;47.620;18.786;2023-02-15T12:17:13;10.89;60.43
67759;SHT31;54562;47.620;18.786;2023-02-15T12:20:25;10.86;60.43
67759;SHT31;54562;47.620;18.786;2023-02-15T12:23:39;10.92;60.39
67759;SHT31;54562;47.620;18.786;2023-02-15T12:26:57;11.00;60.60
67759;SHT31;54562;47.620;18.786;2023-02-15T12:30:13;11.07;60.37
67759;SHT31;54562;47.620;18.786;2023-02-15T12:33:26;11.13;60.24
67759;SHT31;54562;47.620;18.786;2023-02-15T12:36:40;11.15;60.02
67759;SHT31;54562;47.620;18.786;2023-02-15T12:39:53;11.15;59.80
67759;SHT31;54562;47.620;18.786;2023-02-15T12:43:01;11.19;59.41
67759;SHT31;54562;47.620;18.786;2023-02-15T12:46:19;11.24;58.99
67759;SHT31;54562;47.620;18.786;2023-02-15T12:49:28;11.30;58.88
67759;SHT31;54562;47.620;18.786;2023-02-15T12:52:35;11.33;58.67
67759;SHT31;54562;47.620;18.786;2023-02-15T12:55:50;11.39;58.35
67759;SHT31;54562;47.620;18.786;2023-02-15T12:59:03;11.40;58.19
67759;SHT31;54562;47.620;18.786;2023-02-15T13:02:12;11.48;58.26
67759;SHT31;54562;47.620;18.786;2023-02-15T13:05:25;11.55;58.34
67759;SHT31;54562;47.620;18.786;2023-02-15T13:08:36;11.60;58.19
67759;SHT31;54562;47.620;18.786;2023-02-15T13:11:51;11.71;57.99
67759;SHT31;54562;47.620;18.786;2023-02-15T13:14:58;11.77;57.74
67759;SHT31;54562;47.620;18.786;2023-02-15T13:18:07;11.85;57.45
67759;SHT31;54562;47.620;18.786;2023-02-15T13:21:20;11.97;57.51
67759;SHT31;54562;47.620;18.786;2023-02-15T13:24:29;12.15;57.14
67759;SHT31;54562;47.620;18.786;2023-02-15T13:27:41;12.29;56.76
67759;SHT31;54562;47.620;18.786;2023-02-15T13:30:49;12.39;56.48
67759;SHT31;54562;47.620;18.786;2023-02-15T13:33:58;12.61;56.22
67759;SHT31;54562;47.620;18.786;2023-02-15T13:37:11;12.85;55.39
67759;SHT31;54562;47.620;18.786;2023-02-15T13:40:24;12.95;54.94
67759;SHT31;54562;47.620;18.786;2023-02-15T13:43:39;13.00;54.55
67759;SHT31;54562;47.620;18.786;2023-02-15T13:47:02;13.16;54.72
67759;SHT31;54562;47.620;18.786;2023-02-15T13:50:29;13.33;54.37
67759;SHT31;54562;47.620;18.786;2023-02-15T14:00:02;13.54;54.20
67759;SHT31;54562;47.620;18.786;2023-02-15T14:04:23;13.52;53.27
67759;SHT31;54562;47.620;18.786;2023-02-15T14:08:13;13.44;53.51
67759;SHT31;54562;47.620;18.786;2023-02-15T14:12:24;13.38;53.48
67759;SHT31;54562;47.620;18.786;2023-02-15T14:16:10;13.22;53.82
67759;SHT31;54562;47.620;18.786;2023-02-15T14:20:07;13.08;53.90
67759;SHT31;54562;47.620;18.786;2023-02-15T14:23:32;13.00;53.83
67759;SHT31;54562;47.620;18.786;2023-02-15T14:27:03;12.87;53.41
67759;SHT31;54562;47.620;18.786;2023-02-15T14:30:19;12.77;53.52
67759;SHT31;54562;47.620;18.786;2023-02-15T14:33:32;12.58;53.60
67759;SHT31;54562;47.620;18.786;2023-02-15T14:36:39;12.46;54.09
67759;SHT31;54562;47.620;18.786;2023-02-15T14:39:44;12.39;54.12
67759;SHT31;54562;47.620;18.786;2023-02-15T14:43:18;12.28;54.42
67759;SHT31;54562;47.620;18.786;2023-02-15T14:46:31;12.30;54.90
67759;SHT31;54562;47.620;18.786;2023-02-15T14:49:42;12.30;54.74
67759;SHT31;54562;47.620;18.786;2023-02-15T14:57:23;12.16;55.10
67759;SHT31;54562;47.620;18.786;2023-02-15T15:00:31;12.11;55.03
67759;SHT31;54562;47.620;18.786;2023-02-15T15:03:43;11.97;55.11
67759;SHT31;54562;47.620;18.786;2023-02-15T15:07:00;11.83;55.56
67759;SHT31;54562;47.620;18.786;2023-02-15T15:10:38;11.67;55.57
67759;SHT31;54562;47.620;18.786;2023-02-15T15:13:55;11.44;55.71
67759;SHT31;54562;47.620;18.786;2023-02-15T15:17:00;11.08;56.14
67759;SHT31;54562;47.620;18.786;2023-02-15T15:20:36;10.73;56.63
67759;SHT31;54562;47.620;18.786;2023-02-15T15:23:44;10.41;57.22
67759;SHT31;54562;47.620;18.786;2023-02-15T15:42:13;9.21;60.02
67759;SHT31;54562;47.620;18.786;2023-02-15T15:56:22;8.48;61.52
67759;SHT31;54562;47.620;18.786;2023-02-15T16:00:00;8.32;61.81
67759;SHT31;54562;47.620;18.786;2023-02-15T16:03:12;8.15;62.03
67759;SHT31;54562;47.620;18.786;2023-02-15T16:06:28;8.01;62.44
67759;SHT31;54562;47.620;18.786;2023-02-15T16:09:53;7.86;62.53
67759;SHT31;54562;47.620;18.786;2023-02-15T16:12:58;7.71;62.92
67759;SHT31;54562;47.620;18.786;2023-02-15T16:16:20;7.57;63.05
67759;SHT31;54562;47.620;18.786;2023-02-15T16:19:28;7.38;63.35
67759;SHT31;54562;47.620;18.786;2023-02-15T16:22:35;7.23;63.55
67759;SHT31;54562;47.620;18.786;2023-02-15T16:25:43;7.09;64.03
67759;SHT31;54562;47.620;18.786;2023-02-15T16:28:56;6.98;64.39
67759;SHT31;54562;47.620;18.786;2023-02-15T16:32:16;6.87;64.50
67759;SHT31;54562;47.620;18.786;2023-02-15T16:35:26;6.76;64.58
67759;SHT31;54562;47.620;18.786;2023-02-15T16:38:44;6.64;64.70
67759;SHT31;54562;47.620;18.786;2023-02-15T16:42:21;6.47;64.91
67759;SHT31;54562;47.620;18.786;2023-02-15T16:45:28;6.34;65.26
67759;SHT31;54562;47.620;18.786;2023-02-15T16:48:42;6.25;65.47
67759;SHT31;54562;47.620;18.786;2023-02-15T16:51:54;6.14;65.60
67759;SHT31;54562;47.620;18.786;2023-02-15T17:05:50;5.64;66.88
67759;SHT31;54562;47.620;18.786;2023-02-15T17:09:04;5.57;67.04
67759;SHT31;54562;47.620;18.786;2023-02-15T17:19:26;5.31;67.54
67759;SHT31;54562;47.620;18.786;2023-02-15T17:26:12;5.10;67.86
67759;SHT31;54562;47.620;18.786;2023-02-15T17:29:25;5.02;68.22
67759;SHT31;54562;47.620;18.786;2023-02-15T17:32:53;4.95;68.46
67759;SHT31;54562;47.620;18.786;2023-02-15T17:36:06;4.89;68.68
67759;SHT31;54562;47.620;18.786;2023-02-15T17:39:19;4.82;69.03
67759;SHT31;54562;47.620;18.786;2023-02-15T17:42:27;4.76;69.31
67759;SHT31;54562;47.620;18.786;2023-02-15T17:45:50;4.73;69.64
67759;SHT31;54562;47.620;18.786;2023-02-15T17:48:59;4.68;69.79
67759;SHT31;54562;47.620;18.786;2023-02-15T17:52:08;4.63;69.97
67759;SHT31;54562;47.620;18.786;2023-02-15T17:55:23;4.60;70.11
67759;SHT31;54562;47.620;18.786;2023-02-15T18:03:03;4.54;70.43
67759;SHT31;54562;47.620;18.786;2023-02-15T18:06:31;4.51;70.52
67759;SHT31;54562;47.620;18.786;2023-02-15T18:10:14;4.48;70.72
67759;SHT31;54562;47.620;18.786;2023-02-15T18:13:49;4.43;70.61
67759;SHT31;54562;47.620;18.786;2023-02-15T18:20:37;4.31;70.55
67759;SHT31;54562;47.620;18.786;2023-02-15T18:23:59;4.24;70.80
67759;SHT31;54562;47.620;18.786;2023-02-15T18:27:11;4.19;70.80
67759;SHT31;54562;47.620;18.786;2023-02-15T18:30:22;4.14;70.95
67759;SHT31;54562;47.620;18.786;2023-02-15T18:33:33;4.11;71.31
67759;SHT31;54562;47.620;18.786;2023-02-15T20:58:12;2.54;75.27
67759;SHT31;54562;47.620;18.786;2023-02-15T21:01:30;2.49;75.34
67759;SHT31;54562;47.620;18.786;2023-02-15T21:05:23;2.44;75.30
67759;SHT31;54562;47.620;18.786;2023-02-15T21:08:55;2.41;75.41
67759;SHT31;54562;47.620;18.786;2023-02-15T21:12:25;2.36;75.28
67759;SHT31;54562;47.620;18.786;2023-02-15T21:15:50;2.30;75.38
67759;SHT31;54562;47.620;18.786;2023-02-15T21:19:31;2.25;75.62
67759;SHT31;54562;47.620;18.786;2023-02-15T21:22:48;2.20;75.97
67759;SHT31;54562;47.620;18.786;2023-02-15T21:26:13;2.16;76.06
67759;SHT31;54562;47.620;18.786;2023-02-15T21:29:40;2.13;76.18
67759;SHT31;54562;47.620;18.786;2023-02-15T21:32:55;2.10;76.32
67759;SHT31;54562;47.620;18.786;2023-02-15T21:36:00;2.08;76.37
67759;SHT31;54562;47.620;18.786;2023-02-15T21:39:06;2.05;76.40
67759;SHT31;54562;47.620;18.786;2023-02-15T21:42:18;2.03;76.47
67759;SHT31;54562;47.620;18.786;2023-02-15T21:45:42;1.99;76.63
67759;SHT31;54562;47.620;18.786;2023-02-15T21:49:05;1.95;76.69
67759;SHT31;54562;47.620;18.786;2023-02-15T21:52:11;1.93;76.85
67759;SHT31;54562;47.620;18.786;2023-02-15T21:55:16;1.90;76.90
67759;SHT31;54562;47.620;18.786;2023-02-15T21:58:21;1.86;77.02
67759;SHT31;54562;47.620;18.786;2023-02-15T22:01:29;1.84;77.07
67759;SHT31;54562;47.620;18.786;2023-02-15T22:04:34;1.82;77.03
67759;SHT31;54562;47.620;18.786;2023-02-15T22:07:40;1.79;77.13
67759;SHT31;54562;47.620;18.786;2023-02-15T22:10:44;1.77;77.19
67759;SHT31;54562;47.620;18.786;2023-02-15T22:13:52;1.76;77.29
67759;SHT31;54562;47.620;18.786;2023-02-15T22:17:12;1.73;77.30
67759;SHT31;54562;47.620;18.786;2023-02-15T22:20:19;1.70;77.36
67759;SHT31;54562;47.620;18.786;2023-02-15T22:23:24;1.67;77.43
67759;SHT31;54562;47.620;18.786;2023-02-15T22:26:28;1.66;77.59
67759;SHT31;54562;47.620;18.786;2023-02-15T22:29:33;1.65;77.66
67759;SHT31;54562;47.620;18.786;2023-02-15T22:32:37;1.63;77.68
67759;SHT31;54562;47.620;18.786;2023-02-15T22:35:41;1.62;77.86
67759;SHT31;54562;47.620;18.786;2023-02-15T22:38:46;1.60;77.94
67759;SHT31;54562;47.620;18.786;2023-02-15T22:41:50;1.58;77.90
67759;SHT31;54562;47.620;18.786;2023-02-15T22:44:55;1.57;77.97
67759;SHT31;54562;47.620;18.786;2023-02-15T22:47:59;1.56;78.08
67759;SHT31;54562;47.620;18.786;2023-02-15T22:51:04;1.53;77.90
67759;SHT31;54562;47.620;18.786;2023-02-15T22:54:08;1.50;77.91
67759;SHT31;54562;47.620;18.786;2023-02-15T22:57:15;1.45;78.02
67759;SHT31;54562;47.620;18.786;2023-02-15T23:00:23;1.41;78.13
67759;SHT31;54562;47.620;18.786;2023-02-15T23:03:29;1.38;78.20
67759;SHT31;54562;47.620;18.786;2023-02-15T23:06:34;1.34;78.07
67759;SHT31;54562;47.620;18.786;2023-02-15T23:09:38;1.27;77.62
67759;SHT31;54562;47.620;18.786;2023-02-15T23:12:42;1.21;77.89
67759;SHT31;54562;47.620;18.786;2023-02-15T23:16:02;1.21;78.23
67759;SHT31;54562;47.620;18.786;2023-02-15T23:19:08;1.22;78.44
67759;SHT31;54562;47.620;18.786;2023-02-15T23:22:15;1.23;78.68
67759;SHT31;54562;47.620;18.786;2023-02-15T23:25:19;1.25;78.84
67759;SHT31;54562;47.620;18.786;2023-02-15T23:28:27;1.27;79.06
67759;SHT31;54562;47.620;18.786;2023-02-15T23:31:33;1.27;79.08
67759;SHT31;54562;47.620;18.786;2023-02-15T23:34:38;1.30;79.15
67759;SHT31;54562;47.620;18.786;2023-02-15T23:37:43;1.30;79.13
67759;SHT31;54562;47.620;18.786;2023-02-15T23:40:48;1.31;79.18
67759;SHT31;54562;47.620;18.786;2023-02-15T23:44:12;1.32;79.09
67759;SHT31;54562;47.620;18.786;2023-02-15T23:47:17;1.32;79.06